Terminal Aerodrome Forecast
Issued by NWS Wichita, KS

Home | Current Version | Previous Version | Text Only | Print | Product List | Glossary Off
Versions: 1 2 3 4 5 6 7 8 9 10 11 12 13 14 15 16 17 18 19 20

922
FTUS43 KICT 281720
TAFICT
TAF
KICT 281720Z 2818/2918 04007KT P6SM SCT040
     FM282300 07007KT P6SM FEW040 SCT200
     FM290300 07007KT P6SM VCTS SCT040CB BKN080
      TEMPO 2903/2907 VRB20G35KT 2SM +TSRA OVC030CB
     FM290900 01007KT P6SM -SHRA VCTS BKN060CB
     FM291200 01006KT P6SM BKN150=

USA.gov is the U.S. government's official web portal to all federal, state and local government web resources and services.